Triboji Beach, Iowa
Current Conditions -  °F | °C
As of 2:34 AM on Saturday 20 Dec 2014 (Local Time) from KMJQ Reporting Station
Haze Haze  
Wind Chill: 24°   Ceiling: 600
Heat Index: 32°   Visibility: 5mi
Dew Point: 28°   Wind: 9mph
Humidity: 87%   Direction: 190°S
Pressure: 30.11"   Gusts: NA
Location:  43.4265°N, 95.1547°W
Report Text: KMJQ 200834Z AUTO 19008KT 5SM BR OVC006 00/M02 A3011 RMK AO2
Loading
Personal Weather Stations






























Interactive Weather Map New forecast layout! Learn more

10-Day Weather Forecast

Advertisements
Track Severe Weather on mobile